Isle Of Innisfree — EIBW — position and weather

sailwx.info

Track history (hours):
 
Tides and Currents Weather Stations Pressure Air Temp Water Temp Dewpoint Dewpoint Depression Visibility Wind Speed Wind Dir Waves Ship Positions

Isle Of Innisfree

Operator: Irish Ferries

Last reported at 2017-Nov-18 02:29 UTC. Time now 2017-Nov-18 13:59 UTC.
Position N 54°50' W 005°36'.

Length 36 m; draft 6.6 m.

Type: Fishing. MMSI: 250102800.

Date/timePositionNaut miles runAvg speedWind from/ knotsBaromVisibWave heightAir tempDewpointWater temp
2017-Nov-18 02:29N 54°50' W 005°36'5 9.6
2017-Nov-18 02:00N 54°47' W 005°32'610.6
2017-Nov-18 01:24N 54°41' W 005°26'512.5
2017-Nov-18 01:00N 54°36' W 005°25'4010.2
2017-Nov-17 21:05N 54°01' W 005°59'110.6
2017-Nov-17 20:59N 54°01' W 006°00'4 8.4
2017-Nov-17 20:30N 54°02' W 006°07'4 8.7
2017-Nov-17 20:00N 54°04' W 006°13'2 0.1
2017-Nov-16 22:01N 54°06' W 006°15'0 0.2
2017-Nov-16 22:00N 54°06' W 006°15'3 5.8
2017-Nov-16 21:30N 54°04' W 006°12'2 4.2
2017-Nov-16 21:00N 54°03' W 006°09'5 9.7
2017-Nov-16 20:30N 54°00' W 006°02'41 7.3
2017-Nov-16 14:52N 54°35' W 005°25'3 8.8
2017-Nov-16 14:30N 54°38' W 005°25'8 8.4
2017-Nov-16 13:32N 54°46' W 005°29'0 8.2
2017-Nov-16 13:30N 54°46' W 005°30'141 7.9
2017-Nov-15 19:37N 57°06' W 005°48'1 8.1
2017-Nov-15 19:30N 57°07' W 005°47'4 8.8
2017-Nov-15 19:00N 57°11' W 005°42'5 9.0
2017-Nov-15 18:30N 57°15' W 005°39'3 6.6
2017-Nov-15 18:01N 57°17' W 005°44'3 6.7
2017-Nov-15 17:30N 57°18' W 005°49'  
Track history (hours):
 
Tides and Currents Weather Stations Pressure Air Temp Water Temp Dewpoint Dewpoint Depression Visibility Wind Speed Wind Dir Waves Ship Positions

Isle Of Innisfree

Operator: Irish Ferries

Last reported at 2017-Nov-18 02:29 UTC. Time now 2017-Nov-18 13:59 UTC.
Position N 54°50' W 005°36'.

Length 36 m; draft 6.6 m.

Type: Fishing. MMSI: 250102800.

Date/timePositionNaut miles runAvg speedWind from/ knotsBaromVisibWave heightAir tempDewpointWater temp
2017-Nov-18 02:29N 54°50' W 005°36'5 9.6
2017-Nov-18 02:00N 54°47' W 005°32'610.6
2017-Nov-18 01:24N 54°41' W 005°26'512.5
2017-Nov-18 01:00N 54°36' W 005°25'4010.2
2017-Nov-17 21:05N 54°01' W 005°59'110.6
2017-Nov-17 20:59N 54°01' W 006°00'4 8.4
2017-Nov-17 20:30N 54°02' W 006°07'4 8.7
2017-Nov-17 20:00N 54°04' W 006°13'2 0.1
2017-Nov-16 22:01N 54°06' W 006°15'0 0.2
2017-Nov-16 22:00N 54°06' W 006°15'3 5.8
2017-Nov-16 21:30N 54°04' W 006°12'2 4.2
2017-Nov-16 21:00N 54°03' W 006°09'5 9.7
2017-Nov-16 20:30N 54°00' W 006°02'41 7.3
2017-Nov-16 14:52N 54°35' W 005°25'3 8.8
2017-Nov-16 14:30N 54°38' W 005°25'8 8.4
2017-Nov-16 13:32N 54°46' W 005°29'0 8.2
2017-Nov-16 13:30N 54°46' W 005°30'141 7.9
2017-Nov-15 19:37N 57°06' W 005°48'1 8.1
2017-Nov-15 19:30N 57°07' W 005°47'4 8.8
2017-Nov-15 19:00N 57°11' W 005°42'5 9.0
2017-Nov-15 18:30N 57°15' W 005°39'3 6.6
2017-Nov-15 18:01N 57°17' W 005°44'3 6.7
2017-Nov-15 17:30N 57°18' W 005°49'  

Dump ship's entire track history